createdAt,value
2018-03-03T00:01:19.102Z,37.60
2018-03-03T00:03:49.251Z,40.77
2018-03-03T00:06:18.391Z,36.57
2018-03-03T00:08:47.502Z,38.70
2018-03-03T00:11:16.587Z,43.17
2018-03-03T00:13:45.711Z,39.70
2018-03-03T00:16:14.780Z,38.00
2018-03-03T00:18:43.915Z,38.47
2018-03-03T00:21:13.044Z,40.70
2018-03-03T00:23:42.875Z,43.70
2018-03-03T00:26:11.976Z,40.57
2018-03-03T00:28:41.080Z,44.27
2018-03-03T00:31:10.197Z,42.70
2018-03-03T00:33:39.288Z,44.57
2018-03-03T00:36:08.402Z,43.57
2018-03-03T00:38:37.511Z,42.67
2018-03-03T00:41:06.628Z,40.50
2018-03-03T00:43:35.696Z,43.70
2018-03-03T00:46:04.781Z,41.23
2018-03-03T00:48:33.903Z,40.90
2018-03-03T00:51:03.757Z,38.10
2018-03-03T00:53:32.863Z,42.50
2018-03-03T00:56:02.704Z,41.07
2018-03-03T00:58:31.823Z,37.70
2018-03-03T01:01:01.657Z,41.00
2018-03-03T01:03:30.759Z,39.47
2018-03-03T01:05:59.856Z,38.30
2018-03-03T01:08:28.934Z,40.10
2018-03-03T01:10:58.033Z,36.17
2018-03-03T01:13:27.128Z,37.83
2018-03-03T01:15:56.220Z,37.20
2018-03-03T01:18:25.346Z,36.37
2018-03-03T01:20:54.428Z,37.10
2018-03-03T01:23:23.620Z,30.43
2018-03-03T01:25:52.688Z,29.83
2018-03-03T01:28:22.617Z,29.70
2018-03-03T01:30:51.694Z,29.87
2018-03-03T01:33:21.568Z,29.30
2018-03-03T01:35:50.667Z,27.37
2018-03-03T01:38:19.762Z,30.97
2018-03-03T01:40:48.870Z,31.40
2018-03-03T01:43:17.958Z,28.87
2018-03-03T01:45:47.054Z,32.30
2018-03-03T01:48:16.142Z,31.13
2018-03-03T01:50:45.261Z,29.50
2018-03-03T01:53:14.363Z,33.40
2018-03-03T01:55:43.441Z,34.57
2018-03-03T01:58:12.550Z,35.73
2018-03-03T02:00:41.624Z,36.00
2018-03-03T02:03:10.748Z,39.67
2018-03-03T02:05:40.661Z,37.77
2018-03-03T02:08:11.119Z,38.80
2018-03-03T02:10:40.223Z,39.87
2018-03-03T02:13:10.003Z,37.63
2018-03-03T02:15:39.125Z,37.70
2018-03-03T02:18:08.203Z,41.30
2018-03-03T02:20:37.304Z,39.77
2018-03-03T02:23:06.378Z,43.50
2018-03-03T02:25:36.258Z,37.70
2018-03-03T02:28:05.332Z,38.70
2018-03-03T02:30:34.444Z,38.67
2018-03-03T02:33:03.834Z,36.30
2018-03-03T02:35:32.910Z,38.00
2018-03-03T02:38:02.027Z,37.97
2018-03-03T02:40:31.094Z,39.20
2018-03-03T02:43:00.193Z,37.63
2018-03-03T02:45:29.396Z,37.90
2018-03-03T02:47:58.472Z,39.23
2018-03-03T02:50:27.567Z,38.13
2018-03-03T02:52:56.693Z,38.53
2018-03-03T02:55:25.780Z,40.07
2018-03-03T02:57:54.899Z,35.43
2018-03-03T03:00:24.018Z,39.50
2018-03-03T03:02:53.118Z,40.67
2018-03-03T03:05:23.024Z,37.17
2018-03-03T03:07:52.132Z,34.80
2018-03-03T03:10:21.999Z,36.03
2018-03-03T03:12:51.110Z,37.97
2018-03-03T03:15:20.190Z,36.50
2018-03-03T03:17:49.299Z,38.77
2018-03-03T03:20:18.387Z,36.97
2018-03-03T03:22:47.536Z,40.57
2018-03-03T03:25:17.366Z,40.43
2018-03-03T03:27:46.470Z,37.40
2018-03-03T03:30:15.557Z,41.97
2018-03-03T03:32:44.663Z,37.70
2018-03-03T03:35:13.759Z,39.03
2018-03-03T03:37:42.874Z,37.90
2018-03-03T03:40:11.963Z,40.47
2018-03-03T03:42:41.028Z,34.87
2018-03-03T03:45:10.155Z,38.40
2018-03-03T03:47:39.227Z,37.83
2018-03-03T03:50:08.331Z,37.10
2018-03-03T03:52:37.431Z,33.27
2018-03-03T03:55:06.539Z,34.17
2018-03-03T03:57:35.631Z,34.60
2018-03-03T04:00:05.507Z,35.63
2018-03-03T04:02:34.579Z,36.03
2018-03-03T04:05:04.469Z,33.60
2018-03-03T04:07:33.571Z,34.97
2018-03-03T04:10:02.698Z,52.03
2018-03-03T04:12:31.774Z,38.07
2018-03-03T04:15:01.655Z,37.57
2018-03-03T04:17:30.745Z,36.27
2018-03-03T04:19:59.875Z,33.50
2018-03-03T04:22:29.020Z,33.20
2018-03-03T04:24:58.197Z,32.83
2018-03-03T04:27:27.299Z,30.43
2018-03-03T04:29:56.405Z,33.60
2018-03-03T04:32:25.517Z,29.53
2018-03-03T04:34:54.604Z,29.40
2018-03-03T04:37:23.695Z,29.40
2018-03-03T04:39:52.799Z,29.90
2018-03-03T04:42:21.898Z,29.43
2018-03-03T04:44:51.007Z,28.73
2018-03-03T04:47:20.118Z,26.57
2018-03-03T04:49:49.194Z,29.10
2018-03-03T04:52:18.308Z,30.97
2018-03-03T04:54:47.412Z,26.73
2018-03-03T04:57:16.489Z,23.80
2018-03-03T04:59:47.857Z,24.00
2018-03-03T05:02:16.929Z,20.00
2018-03-03T05:18:38.915Z,18.80
2018-03-03T05:21:13.498Z,20.63
2018-03-03T05:37:23.497Z,23.03
2018-03-03T05:39:58.175Z,46.77
2018-03-03T05:42:33.677Z,38.27
2018-03-03T05:58:40.476Z,55.30
2018-03-03T06:01:15.852Z,56.40
2018-03-03T06:03:45.797Z,42.87
2018-03-03T06:19:35.879Z,35.90
2018-03-03T06:22:04.975Z,38.63
2018-03-03T06:24:34.075Z,34.47
2018-03-03T06:27:03.166Z,36.90
2018-03-03T06:29:32.283Z,38.40
2018-03-03T06:32:02.125Z,38.03
2018-03-03T06:34:31.442Z,38.93
2018-03-03T06:37:00.522Z,36.83
2018-03-03T06:39:29.659Z,38.20
2018-03-03T06:41:58.759Z,38.17
2018-03-03T06:44:27.858Z,38.07
2018-03-03T06:46:56.995Z,36.70
2018-03-03T06:49:26.123Z,77.37
2018-03-03T06:51:55.223Z,49.40
2018-03-03T06:54:24.604Z,41.93
2018-03-03T06:56:53.788Z,40.50
2018-03-03T06:59:22.958Z,38.57
2018-03-03T07:01:52.875Z,39.63
2018-03-03T07:04:22.737Z,37.50
2018-03-03T07:06:51.816Z,35.97
2018-03-03T07:09:20.959Z,35.53
2018-03-03T07:11:50.071Z,38.40
2018-03-03T07:14:19.384Z,46.57
2018-03-03T07:16:48.860Z,39.93
2018-03-03T07:19:17.940Z,34.50
2018-03-03T07:21:47.307Z,36.17
2018-03-03T07:24:16.411Z,35.40
2018-03-03T07:26:45.491Z,34.80
2018-03-03T07:29:14.562Z,34.10
2018-03-03T07:31:44.463Z,35.13
2018-03-03T07:34:13.539Z,37.20
2018-03-03T07:36:42.879Z,47.90
2018-03-03T07:39:12.753Z,43.03
2018-03-03T07:41:41.812Z,38.80
2018-03-03T07:44:10.902Z,39.53
2018-03-03T07:46:39.971Z,37.80
2018-03-03T07:49:09.841Z,36.60
2018-03-03T07:51:39.676Z,34.77
2018-03-03T07:54:08.776Z,39.63
2018-03-03T07:56:50.714Z,44.80
2018-03-03T07:59:19.844Z,37.93
2018-03-03T08:01:48.935Z,41.27
2018-03-03T08:04:18.042Z,39.80
2018-03-03T08:06:47.139Z,39.67
2018-03-03T08:09:16.206Z,38.93
2018-03-03T08:11:45.324Z,41.70
2018-03-03T08:14:14.391Z,43.20
2018-03-03T08:16:43.508Z,39.20
2018-03-03T08:19:12.624Z,36.97
2018-03-03T08:21:41.699Z,36.17
2018-03-03T08:24:10.803Z,36.30
2018-03-03T08:26:39.937Z,38.33
2018-03-03T08:29:09.786Z,67.07
2018-03-03T08:31:38.909Z,38.43
2018-03-03T08:34:08.040Z,36.17
2018-03-03T08:36:37.878Z,39.97
2018-03-03T08:39:07.016Z,37.90
2018-03-03T08:41:36.087Z,38.53
2018-03-03T08:44:05.159Z,44.00
2018-03-03T08:46:34.263Z,46.07
2018-03-03T08:49:03.344Z,45.57
2018-03-03T08:51:32.473Z,48.77
2018-03-03T08:54:01.527Z,53.00
2018-03-03T08:56:30.619Z,49.53
2018-03-03T08:58:59.727Z,46.97
2018-03-03T09:01:28.809Z,47.47
2018-03-03T09:03:57.920Z,44.43
2018-03-03T09:06:27.020Z,44.23
2018-03-03T09:08:56.118Z,43.67
2018-03-03T09:11:25.222Z,42.83
2018-03-03T09:13:54.291Z,44.80
2018-03-03T09:16:23.415Z,41.90
2018-03-03T09:18:52.532Z,43.20
2018-03-03T09:21:22.402Z,43.43
2018-03-03T09:23:51.511Z,44.40
2018-03-03T09:26:20.573Z,42.67
2018-03-03T09:28:50.433Z,42.00
2018-03-03T09:31:20.273Z,42.00
2018-03-03T09:33:49.363Z,43.80
2018-03-03T09:36:18.485Z,42.83
2018-03-03T09:38:48.307Z,43.17
2018-03-03T09:41:17.386Z,47.77
2018-03-03T09:43:46.463Z,48.80
2018-03-03T09:46:15.589Z,42.20
2018-03-03T09:48:45.443Z,39.13
2018-03-03T09:51:14.511Z,42.43
2018-03-03T09:53:43.598Z,39.63
2018-03-03T09:56:12.694Z,40.97
2018-03-03T09:58:41.757Z,42.83
2018-03-03T10:01:10.852Z,41.30
2018-03-03T10:03:39.939Z,41.00
2018-03-03T10:06:09.012Z,42.60
2018-03-03T10:08:38.063Z,40.90
2018-03-03T10:11:07.157Z,42.57
2018-03-03T10:13:36.261Z,43.20
2018-03-03T10:16:05.313Z,40.33
2018-03-03T10:18:34.397Z,43.73
2018-03-03T10:21:03.463Z,40.57
2018-03-03T10:23:32.562Z,41.87
2018-03-03T10:26:01.615Z,39.67
2018-03-03T10:28:31.513Z,39.67
2018-03-03T10:31:00.572Z,44.70
2018-03-03T10:33:29.665Z,40.90
2018-03-03T10:35:58.729Z,54.47
2018-03-03T10:38:27.834Z,45.27
2018-03-03T10:40:56.917Z,43.93
2018-03-03T10:43:26.774Z,43.43
2018-03-03T10:45:55.828Z,44.77
2018-03-03T10:48:24.922Z,44.37
2018-03-03T10:50:54.041Z,43.93
2018-03-03T10:53:23.093Z,42.00
2018-03-03T10:55:52.983Z,43.93
2018-03-03T10:58:22.054Z,49.23
2018-03-03T11:00:51.146Z,41.20
2018-03-03T11:03:20.208Z,41.83
2018-03-03T11:05:49.287Z,44.43
2018-03-03T11:08:19.144Z,78.60
2018-03-03T11:10:48.245Z,43.50
2018-03-03T11:13:17.300Z,41.27
2018-03-03T11:15:46.461Z,42.63
2018-03-03T11:18:16.250Z,43.20
2018-03-03T11:20:45.348Z,38.33
2018-03-03T11:23:14.444Z,39.77
2018-03-03T11:25:43.515Z,41.67
2018-03-03T11:28:12.592Z,39.97
2018-03-03T11:30:41.660Z,36.33
2018-03-03T11:33:10.769Z,38.20
2018-03-03T11:35:40.583Z,35.07
2018-03-03T11:38:09.654Z,32.80
2018-03-03T11:40:38.893Z,29.43
2018-03-03T11:46:12.198Z,42.80
2018-03-03T11:48:42.038Z,44.33
2018-03-03T11:51:11.103Z,32.40
2018-03-03T11:53:40.164Z,29.97
2018-03-03T11:56:09.256Z,31.20
2018-03-03T11:58:38.377Z,31.63
2018-03-03T12:01:08.235Z,31.80
2018-03-03T12:03:37.308Z,32.80
2018-03-03T12:06:06.412Z,30.30
2018-03-03T12:08:35.563Z,36.00
2018-03-03T12:11:04.675Z,35.83
2018-03-03T12:13:33.750Z,33.87
2018-03-03T12:16:02.874Z,48.00
2018-03-03T12:18:31.936Z,34.83
2018-03-03T12:21:01.037Z,34.40
2018-03-03T12:23:30.111Z,34.07
2018-03-03T12:25:59.225Z,33.77
2018-03-03T12:28:28.407Z,32.93
2018-03-03T12:30:57.526Z,35.17
2018-03-03T12:33:26.619Z,34.93
2018-03-03T12:35:55.719Z,33.00
2018-03-03T12:38:24.804Z,35.80
2018-03-03T12:40:53.911Z,34.73
2018-03-03T12:43:22.975Z,33.80
2018-03-03T12:45:52.073Z,31.53
2018-03-03T12:48:21.202Z,34.17
2018-03-03T12:50:51.059Z,33.10
2018-03-03T12:53:20.122Z,32.43
2018-03-03T12:55:49.206Z,33.97
2018-03-03T12:58:19.044Z,33.50
2018-03-03T13:00:48.142Z,46.13
2018-03-03T13:03:17.232Z,47.17
2018-03-03T13:05:46.305Z,34.47
2018-03-03T13:08:16.165Z,34.17
2018-03-03T13:10:46.038Z,34.80
2018-03-03T13:13:16.675Z,35.27
2018-03-03T13:15:45.756Z,36.73
2018-03-03T13:18:15.575Z,38.03
2018-03-03T13:20:44.684Z,35.67
2018-03-03T13:23:13.752Z,34.43
2018-03-03T13:25:43.602Z,36.73
2018-03-03T13:28:12.664Z,36.43
2018-03-03T13:30:42.519Z,36.83
2018-03-03T13:33:11.577Z,37.43
2018-03-03T13:35:41.439Z,37.10
2018-03-03T13:38:10.546Z,35.33
2018-03-03T13:40:39.953Z,39.77
2018-03-03T13:43:09.008Z,40.63
2018-03-03T13:45:38.113Z,42.43
2018-03-03T13:48:07.204Z,46.40
2018-03-03T13:50:36.275Z,39.43
2018-03-03T13:53:05.362Z,40.33
2018-03-03T13:55:34.431Z,41.77
2018-03-03T13:58:03.537Z,39.43
2018-03-03T14:00:33.379Z,42.43
2018-03-03T14:03:02.464Z,41.03
2018-03-03T14:05:31.554Z,40.30
2018-03-03T14:08:00.641Z,37.40
2018-03-03T14:10:30.463Z,40.97
2018-03-03T14:12:59.573Z,40.00
2018-03-03T14:15:28.661Z,40.83
2018-03-03T14:17:57.712Z,43.70
2018-03-03T14:20:26.837Z,42.17
2018-03-03T14:22:56.693Z,39.50
2018-03-03T14:25:25.767Z,49.80
2018-03-03T14:27:54.847Z,47.63
2018-03-03T14:30:24.689Z,41.10
2018-03-03T14:32:53.795Z,43.67
2018-03-03T14:35:22.876Z,39.63
2018-03-03T14:37:51.934Z,44.60
2018-03-03T14:40:21.793Z,41.60
2018-03-03T14:42:50.924Z,44.70
2018-03-03T14:45:19.969Z,43.27
2018-03-03T14:47:49.034Z,43.37
2018-03-03T14:50:18.918Z,43.37
2018-03-03T14:52:48.071Z,44.80
2018-03-03T14:55:17.144Z,43.47
2018-03-03T14:57:46.186Z,44.50
2018-03-03T15:00:15.265Z,46.90
2018-03-03T15:02:44.352Z,54.93
2018-03-03T15:05:13.409Z,62.57
2018-03-03T15:07:43.222Z,48.47
2018-03-03T15:10:12.290Z,50.50
2018-03-03T15:12:41.381Z,47.37
2018-03-03T15:15:10.420Z,48.03
2018-03-03T15:17:39.482Z,45.40
2018-03-03T15:20:08.582Z,47.83
2018-03-03T15:22:38.367Z,46.73
2018-03-03T15:25:07.442Z,47.60
2018-03-03T15:27:37.273Z,42.87
2018-03-03T15:30:06.351Z,49.27
2018-03-03T15:32:35.422Z,48.47
2018-03-03T15:35:04.851Z,60.73
2018-03-03T15:37:35.141Z,68.27
2018-03-03T15:40:04.186Z,53.50
2018-03-03T15:42:33.268Z,49.30
2018-03-03T15:45:02.311Z,49.30
2018-03-03T15:47:31.391Z,51.47
2018-03-03T15:50:00.441Z,51.20
2018-03-03T15:52:29.522Z,51.90
2018-03-03T15:54:58.583Z,51.97
2018-03-03T15:57:27.658Z,53.37
2018-03-03T15:59:56.807Z,53.40
2018-03-03T16:02:25.908Z,51.27
2018-03-03T16:04:54.956Z,64.07
2018-03-03T16:07:24.924Z,72.43
2018-03-03T16:09:54.025Z,53.47
2018-03-03T16:12:23.129Z,55.20
2018-03-03T16:14:52.132Z,52.80
2018-03-03T16:17:21.806Z,53.57
2018-03-03T16:19:50.880Z,53.23
2018-03-03T16:22:19.929Z,51.27
2018-03-03T16:24:49.740Z,59.80
2018-03-03T16:27:18.819Z,86.07
2018-03-03T16:29:47.871Z,80.37
2018-03-03T16:32:16.966Z,58.60
2018-03-03T16:34:46.048Z,60.63
2018-03-03T16:37:15.918Z,53.57
2018-03-03T16:39:44.998Z,55.00
2018-03-03T16:42:14.120Z,53.93
2018-03-03T16:44:43.178Z,54.10
2018-03-03T16:47:12.321Z,54.50
2018-03-03T16:49:41.393Z,54.13
2018-03-03T16:52:10.500Z,53.83
2018-03-03T16:54:39.565Z,57.60
2018-03-03T16:57:08.636Z,53.83
2018-03-03T16:59:37.692Z,58.13
2018-03-03T17:02:06.763Z,55.37
2018-03-03T17:04:35.816Z,55.27
2018-03-03T17:07:04.898Z,55.93
2018-03-03T17:09:34.696Z,59.23
2018-03-03T17:12:04.818Z,56.50
2018-03-03T17:14:33.882Z,57.57
2018-03-03T17:17:02.922Z,58.97
2018-03-03T17:19:32.008Z,59.63
2018-03-03T17:22:01.860Z,59.33
2018-03-03T17:24:30.935Z,55.97
2018-03-03T17:27:00.007Z,58.60
2018-03-03T17:29:29.071Z,52.90
2018-03-03T17:31:58.139Z,54.90
2018-03-03T17:34:27.208Z,54.27
2018-03-03T17:36:56.313Z,56.23
2018-03-03T17:39:25.381Z,52.77
2018-03-03T17:41:55.226Z,50.53
2018-03-03T17:44:24.321Z,53.83
2018-03-03T17:46:53.391Z,52.00
2018-03-03T17:49:23.280Z,51.07
2018-03-03T17:51:52.375Z,52.17
2018-03-03T17:54:21.488Z,52.20
2018-03-03T17:56:51.356Z,55.30
2018-03-03T17:59:20.449Z,53.73
2018-03-03T18:01:49.523Z,52.03
2018-03-03T18:04:18.589Z,53.07
2018-03-03T18:06:48.429Z,52.70
2018-03-03T18:09:17.506Z,51.70
2018-03-03T18:11:59.461Z,52.33
2018-03-03T18:14:28.506Z,51.80
2018-03-03T18:16:57.594Z,52.60
2018-03-03T18:19:41.532Z,51.60
2018-03-03T18:22:10.611Z,49.17
2018-03-03T18:24:40.480Z,51.33
2018-03-03T18:27:09.537Z,55.17
2018-03-03T18:29:38.654Z,51.20
2018-03-03T18:32:07.722Z,52.37
2018-03-03T18:34:36.785Z,51.33
2018-03-03T18:37:05.871Z,50.80
2018-03-03T18:39:34.923Z,51.33
2018-03-03T18:42:04.022Z,46.83
2018-03-03T18:44:33.067Z,51.03
2018-03-03T18:47:02.158Z,50.87
2018-03-03T18:49:31.228Z,55.40
2018-03-03T18:52:00.378Z,58.97
2018-03-03T18:54:29.455Z,55.23
2018-03-03T18:56:58.521Z,50.63
2018-03-03T18:59:27.766Z,51.40
2018-03-03T19:01:57.735Z,56.50
2018-03-03T19:04:26.796Z,99.60
2018-03-03T19:06:55.890Z,56.20
2018-03-03T19:09:25.091Z,54.50
2018-03-03T19:11:54.150Z,56.00
2018-03-03T19:14:23.977Z,57.23
2018-03-03T19:16:53.064Z,54.30
2018-03-03T19:19:22.875Z,54.27
2018-03-03T19:21:52.700Z,51.40
2018-03-03T19:24:21.781Z,54.10
2018-03-03T19:26:50.828Z,53.03
2018-03-03T19:29:20.740Z,54.37
2018-03-03T19:31:49.843Z,55.87
2018-03-03T19:34:18.901Z,55.60
2018-03-03T19:39:53.601Z,53.80
2018-03-03T19:42:22.984Z,52.17
2018-03-03T19:44:52.084Z,52.10
2018-03-03T19:47:21.139Z,52.63
2018-03-03T19:49:50.316Z,52.40
2018-03-03T19:52:20.142Z,53.27
2018-03-03T19:54:49.215Z,52.40
2018-03-03T19:57:19.096Z,53.23
2018-03-03T19:59:48.346Z,49.97
2018-03-03T20:02:17.402Z,49.47
2018-03-03T20:04:46.558Z,51.53
2018-03-03T20:07:15.605Z,51.17
2018-03-03T20:09:44.680Z,50.87
2018-03-03T20:12:13.832Z,55.10
2018-03-03T20:14:42.888Z,56.97
2018-03-03T20:17:11.975Z,59.13
2018-03-03T20:19:41.048Z,54.50
2018-03-03T20:22:10.105Z,64.07
2018-03-03T20:24:39.158Z,70.50
2018-03-03T20:27:08.288Z,66.70
2018-03-03T20:29:37.363Z,75.30
2018-03-03T20:32:07.183Z,71.93
2018-03-03T20:34:37.083Z,72.70
2018-03-03T20:37:06.939Z,76.33
2018-03-03T20:39:36.020Z,80.80
2018-03-03T20:42:05.089Z,75.10
2018-03-03T20:44:35.020Z,80.27
2018-03-03T20:47:04.075Z,72.37
2018-03-03T20:49:33.188Z,72.27
2018-03-03T20:52:02.241Z,63.30
2018-03-03T20:54:31.337Z,69.97
2018-03-03T20:57:00.416Z,62.33
2018-03-03T20:59:29.475Z,59.43
2018-03-03T21:01:59.300Z,62.00
2018-03-03T21:04:28.469Z,70.27
2018-03-03T21:06:57.522Z,63.50
2018-03-03T21:09:26.589Z,66.27
2018-03-03T21:11:56.433Z,57.27
2018-03-03T21:14:25.481Z,59.23
2018-03-03T21:16:55.321Z,61.70
2018-03-03T21:19:24.425Z,67.27
2018-03-03T21:21:53.497Z,70.43
2018-03-03T21:24:22.568Z,67.00
2018-03-03T21:26:51.688Z,67.40
2018-03-03T21:29:20.760Z,70.13
2018-03-03T21:31:50.647Z,67.50
2018-03-03T21:34:19.772Z,69.87
2018-03-03T21:36:49.596Z,71.43
2018-03-03T21:39:19.429Z,71.03
2018-03-03T21:41:48.499Z,68.00
2018-03-03T21:44:18.329Z,70.93
2018-03-03T21:46:47.423Z,69.77
2018-03-03T21:49:16.497Z,71.10
2018-03-03T21:51:46.320Z,72.20
2018-03-03T21:54:16.184Z,61.87
2018-03-03T21:56:45.277Z,56.67
2018-03-03T21:59:14.396Z,54.43
2018-03-03T22:01:43.451Z,54.37
2018-03-03T22:04:12.548Z,54.97
2018-03-03T22:06:41.628Z,53.93
2018-03-03T22:09:10.688Z,53.47
2018-03-03T22:11:40.516Z,56.07
2018-03-03T22:14:09.628Z,53.03
2018-03-03T22:16:38.713Z,50.70
2018-03-03T22:19:07.776Z,50.53
2018-03-03T22:21:36.863Z,55.60
2018-03-03T22:24:05.939Z,53.07
2018-03-03T22:26:34.999Z,53.40
2018-03-03T22:29:04.081Z,52.07
2018-03-03T22:31:33.143Z,50.27
2018-03-03T22:34:02.191Z,46.47
2018-03-03T22:36:31.340Z,48.50
2018-03-03T22:39:00.376Z,44.23
2018-03-03T22:41:29.440Z,46.47
2018-03-03T22:43:59.287Z,45.47
2018-03-03T22:46:28.369Z,46.90
2018-03-03T22:48:57.420Z,45.20
2018-03-03T22:51:26.546Z,46.10
2018-03-03T22:53:56.384Z,45.00
2018-03-03T22:56:25.443Z,44.07
2018-03-03T22:58:54.514Z,44.20
2018-03-03T23:01:23.569Z,47.27
2018-03-03T23:03:52.672Z,47.03
2018-03-03T23:06:21.851Z,44.20
2018-03-03T23:08:50.927Z,42.30
2018-03-03T23:11:20.790Z,44.57
2018-03-03T23:13:49.843Z,39.50
2018-03-03T23:16:18.904Z,42.40
2018-03-03T23:18:48.031Z,41.70
2018-03-03T23:21:17.101Z,42.93
2018-03-03T23:23:46.171Z,43.43
2018-03-03T23:26:15.257Z,41.50
2018-03-03T23:28:44.318Z,44.70
2018-03-03T23:31:13.383Z,46.07
2018-03-03T23:33:44.713Z,45.13
2018-03-03T23:36:13.769Z,43.60
2018-03-03T23:38:43.610Z,44.90
2018-03-03T23:41:12.822Z,45.90
2018-03-03T23:43:41.910Z,44.80
2018-03-03T23:46:10.973Z,45.27
2018-03-03T23:48:40.091Z,43.40
2018-03-03T23:51:09.156Z,46.10
2018-03-03T23:53:38.219Z,45.70
2018-03-03T23:56:08.112Z,45.17
2018-03-03T23:58:37.174Z,43.83
